Flight Track Log - Related Links

Times and Time Zones

All times are in EDT time to prevent confusion due to time zone crossing. See the EJA982 flight status page for this flight to view local times or setup timezone preferences in your user account.

Time Position Orientation Groundspeed Altitude Reporting Facility
EDT Latitude Longitude Course Direction KTS MPH feet Rate Location/Type
Mon 08:18:27 AM 25.9092 -80.2661 80° East 178 205 400  Level Miami Center
Mon 08:19:10 AM 25.9164 -80.2200 80° East 214 246 2,300 1,500 Climbing Miami Center
Mon 08:20:11 AM 25.9264 -80.1489 81° East 283 326 3,000 885 Climbing Miami Center
Mon 08:21:12 AM 25.9758 -80.1756 334° Northwest 247 284 4,100 1,952 Climbing Miami Center
Mon 08:22:17 AM 26.0097 -80.2481 297° West 243 280 7,100 2,880 Climbing Miami Center
Mon 08:23:17 AM 26.0456 -80.3231 298° West 249 287 10,100 2,132 Climbing Miami Center
Mon 08:24:18 AM 26.0850 -80.4167 295° West 294 338 11,400 1,650 Climbing Miami Center
Mon 08:25:17 AM 26.1306 -80.5200 296° West 341 392 13,400 1,916 Climbing Miami Center
Mon 08:26:17 AM 26.1758 -80.6278 295° West 371 427 15,200 1,700 Climbing Miami Center
Mon 08:27:17 AM 26.2358 -80.7292 303° West 386 444 16,800 1,500 Climbing Miami Center
Mon 08:28:17 AM 26.3200 -80.7878 328° Northwest 391 450 18,200 1,450 Climbing Miami Center
Mon 08:29:17 AM 26.4244 -80.8653 326° Northwest 409 471 19,700 1,300 Climbing Miami Center
Mon 08:30:17 AM 26.5103 -80.9264 328° Northwest 415 478 20,800 1,150 Climbing Miami Center
Mon 08:31:17 AM 26.6086 -80.9969 327° Northwest 415 478 22,000 1,450 Climbing Miami Center
Mon 08:32:17 AM 26.7131 -81.0728 327° Northwest 415 478 23,700 1,450 Climbing Miami Center
Mon 08:33:17 AM 26.8089 -81.1436 327° Northwest 409 471 24,900 1,250 Climbing Miami Center
Mon 08:34:17 AM 26.9050 -81.2147 327° Northwest 409 471 26,200 1,100 Climbing Miami Center
Mon 08:35:17 AM 26.9950 -81.2786 328° Northwest 415 478 27,100 1,050 Climbing Miami Center
Mon 08:36:17 AM 27.1031 -81.3597 326° Northwest 420 483 28,300 1,150 Climbing Miami Center
Mon 08:37:17 AM 27.2072 -81.4361 327° Northwest 432 497 29,400 1,100 Climbing Miami Center
Mon 08:38:17 AM 27.3092 -81.5128 326° Northwest 440 506 30,500 1,000 Climbing Miami Center
Mon 08:39:17 AM 27.4131 -81.5894 327° Northwest 446 513 31,400 950 Climbing Miami Center
Mon 08:40:17 AM 27.5089 -81.6589 327° Northwest 453 521 32,400 750 Climbing Miami Center
Mon 08:42:45 AM 27.7806 -81.8536 328° Northwest 463 533 34,000 462 Climbing Jacksonville Center
Mon 08:43:45 AM 27.8981 -81.9464 325° Northwest 493 567 34,000  Level Jacksonville Center
Mon 08:44:45 AM 28.0114 -82.0369 325° Northwest 504 580 34,000  Level Jacksonville Center
Mon 08:45:45 AM 28.1247 -82.1372 322° Northwest 509 586 34,000 -250 Level Jacksonville Center
Mon 08:46:45 AM 28.2358 -82.2353 322° Northwest 514 592 33,500 -1,500 Descending Jacksonville Center
Mon 08:47:45 AM 28.3492 -82.3383 321° Northwest 514 592 31,000 -2,550 Descending Jacksonville Center
Mon 08:48:45 AM 28.4622 -82.4417 321° Northwest 524 603 28,400 -2,550 Descending Jacksonville Center
Mon 08:49:45 AM 28.5731 -82.5403 322° Northwest 519 597 25,900 -1,700 Descending Jacksonville Center
Mon 08:50:45 AM 28.6778 -82.6347 322° Northwest 498 573 25,000 -1,250 Descending Jacksonville Center
Mon 08:51:45 AM 28.7781 -82.7267 321° Northwest 481 554 23,400 -1,500 Descending Jacksonville Center
Mon 08:52:45 AM 28.8803 -82.8192 322° Northwest 471 542 22,000 -700 Descending Jacksonville Center
Mon 08:53:45 AM 28.9825 -82.9092 322° Northwest 466 536 22,000  Level Jacksonville Center
Mon 08:54:45 AM 29.0764 -82.9972 321° Northwest 453 521 22,000  Level Jacksonville Center
Mon 08:55:45 AM 29.1725 -83.0853 321° Northwest 448 516 22,000 -350 Level Jacksonville Center
Mon 08:56:45 AM 29.2703 -83.1758 321° Northwest 448 516 21,300 -1,100 Descending Jacksonville Center
Mon 08:57:45 AM 29.3767 -83.2739 321° Northwest 453 521 19,800 -1,300 Descending Jacksonville Center
Mon 08:58:45 AM 29.4786 -83.3672 321° Northwest 453 521 18,700 -1,000 Descending Jacksonville Center
Mon 08:59:45 AM 29.5783 -83.4586 321° Northwest 458 527 17,800 -1,050 Descending Jacksonville Center
Mon 09:00:45 AM 29.6761 -83.5475 322° Northwest 453 521 16,600 -1,150 Descending Jacksonville Center
Mon 09:01:45 AM 29.7675 -83.6342 321° Northwest 447 514 15,500 -1,100 Descending Jacksonville Center
Mon 09:02:45 AM 29.8608 -83.7189 322° Northwest 437 503 14,400 -1,850 Descending Jacksonville Center
Mon 09:03:45 AM 29.9522 -83.8036 321° Northwest 431 496 11,800 -1,700 Descending Jacksonville Center
Mon 09:04:45 AM 30.0372 -83.8836 321° Northwest 414 476 11,000 -450 Descending Jacksonville Center
Mon 09:05:45 AM 30.1222 -83.9636 321° Northwest 403 464 10,900 -600 Descending Jacksonville Center
Mon 09:06:45 AM 30.1925 -84.0342 319° Northwest 370 426 9,800 -450 Descending Jacksonville Center
Mon 09:07:45 AM 30.2717 -84.0686 339° North 314 361 10,000 50 Climbing Jacksonville Center
Mon 09:08:45 AM 30.3572 -84.0722 358° North 304 350 9,900 -1,350 Descending Jacksonville Center
Mon 09:09:45 AM 30.4383 -84.0803 355° North 299 344 7,300 -1,450 Descending Jacksonville Center
Mon 09:10:45 AM 30.5178 -84.0839 358° North 291 335 7,000 -1,150 Descending Jacksonville Center
Mon 09:11:45 AM 30.5908 -84.0894 356° North 272 313 5,000 -2,000 Descending Jacksonville Center
Mon 09:13:00 AM 30.5058 -84.2042 229° Southwest  Level Estimated
Mon 09:20:00 AM 30.3967 -84.3509 229° Southwest  Level Estimated
Mon 09:21:00 AM 30.3967 -84.3509 30° Northeast  Level Estimated
Mon 09:22:00 AM 30.3967 -84.3509 30° Northeast  Level Estimated
Mon 09:23:00 AM 30.3967 -84.3509 30° Northeast  Level Estimated
Mon 09:24:00 AM 30.3967 -84.3509 30° Northeast  Level Estimated
Mon 09:25:00 AM 30.3967 -84.3509 30° Northeast  Level Estimated
Mon 09:26:00 AM 30.3967 -84.3509 30° Northeast  Level Estimated
Mon 09:27:00 AM 30.3967 -84.3509 30° Northeast  Level Estimated
Mon 09:28:00 AM 30.3967 -84.3509 30° Northeast  Level Estimated
Mon 09:29:00 AM 30.3967 -84.3509 30° Northeast  Level Estimated

Login

Don't have an account? Register now (free) for customized features, flight alerts, and more!